Impacts METAR Board
IDs:

KHPN - White Plains/Westche, NY, US

Updated at: 2000 UTC 21 Sep 2021
Potential Impact None Slight Moderate High
Time 21/08Z 21/09Z 21/10Z 21/11Z 21/12Z 21/13Z 21/14Z 21/15Z 21/16Z 21/17Z 21/18Z 21/19Z 21/20Z
Temp57 56 55 55 61 62 66 69 70 72 72 74 73
Dewpt54 53 53 52 55 56 55 56 58 59 60 62 62
Altim30.35 30.34 30.34 30.36 30.37 30.37 30.37 30.38 30.36 30.36 30.33 30.32 30.30
VIS10 10 10 10 10 10 10 10 10 10 10 10 10
CIG-- -- -- -- -- 29 -- -- -- -- 26 26 30
CoverCLRCLRFEWCLRSCTBKNSCTSCTSCTSCTBKNBKNBKN
FltCatVFRVFRVFRVFRVFRMVFRVFRVFRVFRVFRMVFRMVFRMVFR
WX--------------------------
WDir00008010011010011080110130110
WSpd0 0 0 0 3 4 8 6 8 7 8 7 8
WGst-- -- -- -- -- -- -- -- -- -- -- -- --
Raw hourly METARs
KHPN 210756Z 00000KT 10SM CLR 14/12 A3035 RMK AO2 SLP275 T01390122
KHPN 210856Z 00000KT 10SM CLR 13/12 A3034 RMK AO2 SLP273 T01330117 56009
KHPN 210956Z 00000KT 10SM FEW090 13/12 A3034 RMK AO2 SLP272 T01280117
KHPN 211056Z 00000KT 10SM CLR 13/11 A3036 RMK AO2 SLP278 T01280111
KHPN 211156Z 08003KT 10SM SCT070 16/13 A3037 RMK AO2 SLP282 T01610128 10161 20122 53008
KHPN 211256Z 10004KT 10SM BKN029 17/13 A3037 RMK AO2 SLP284 T01670133
KHPN 211356Z 11008KT 10SM SCT038 19/13 A3037 RMK AO2 SLP284 T01890128
KHPN 211456Z 10006KT 10SM FEW029 SCT040 21/13 A3038 RMK AO2 SLP284 T02060133 51002
KHPN 211556Z 11008KT 10SM FEW029 SCT039 21/14 A3036 RMK AO2 SLP279 T02110144
KHPN 211656Z 08007KT 10SM SCT026 22/15 A3036 RMK AO2 SLP276 T02220150
KHPN 211756Z 11008KT 10SM BKN026 22/16 A3033 RMK AO2 SLP268 T02220156 10228 20161 58015
KHPN 211856Z 13007KT 10SM BKN026 23/17 A3032 RMK AO2 SLP264 T02330167
KHPN 211956Z 11008KT 070V140 10SM SCT026 BKN030 BKN050 23/17 A3030 RMK AO2 SLP259 T02280167



Page loaded:  20:50 UTC  |   01:50 PM Pacific  |   02:50 PM Mountain  |   03:50 PM Central  |   04:50 PM Eastern

 

ADVISORIES

FORECASTS

FORECASTS

OBSERVATIONS

USER TOOLS

ABOUT US